ePrivacy and GPDR Cookie Consent by Cookie Consent
EmailTwitter


Observations de surface / France / LFBO (07630)

Régions: Québec | Canada | États-Unis | Europe | France | UK | Ailleurs
Station
Affichage
Infos & localisation pour LFBO (07630) | Aide pour décoder les METARs

Observations prises le 2022-08-11 à 23H30 UTC à TOULOUSE/BLAGNAC, FR (LFBO)

Température: 26.0 Celsius

Point de rosée: 21.0 Celsius

Humidité relative: 74%

Indice Humidex 34.

Vents: Sud-sud-est à 11 km/h ou 6 noeuds.

Pression au niveau moyen de la mer: 101.30 kilopascals.

Observation METAR:

LFBO 112330Z AUTO 16006KT CAVOK 26/21 Q1013 NOSIG=